createdAt,value
2019-04-05T00:00:56.606Z,2.77
2019-04-05T00:03:25.761Z,2.83
2019-04-05T00:05:55.030Z,2.87
2019-04-05T00:08:24.271Z,2.80
2019-04-05T00:10:53.485Z,2.70
2019-04-05T00:13:22.754Z,2.90
2019-04-05T00:15:52.008Z,2.90
2019-04-05T00:18:21.482Z,3.17
2019-04-05T00:20:50.742Z,2.47
2019-04-05T00:23:19.959Z,3.03
2019-04-05T00:25:49.185Z,2.83
2019-04-05T00:28:18.645Z,2.87
2019-04-05T00:30:47.882Z,2.70
2019-04-05T00:33:17.274Z,2.93
2019-04-05T00:35:46.554Z,2.73
2019-04-05T00:38:15.816Z,3.10
2019-04-05T00:40:45.163Z,3.03
2019-04-05T00:43:14.452Z,2.70
2019-04-05T00:45:43.761Z,2.80
2019-04-05T00:48:13.029Z,3.27
2019-04-05T00:50:42.260Z,3.10
2019-04-05T00:53:11.488Z,2.70
2019-04-05T00:55:40.755Z,2.90
2019-04-05T00:58:09.995Z,2.90
2019-04-05T01:00:39.250Z,2.97
2019-04-05T01:03:08.501Z,3.20
2019-04-05T01:05:37.826Z,2.80
2019-04-05T01:08:07.076Z,2.97
2019-04-05T01:10:36.642Z,3.07
2019-04-05T01:13:05.897Z,3.37
2019-04-05T01:15:40.647Z,3.40
2019-04-05T01:18:06.162Z,3.10
2019-04-05T01:20:38.436Z,3.40
2019-04-05T01:23:09.777Z,3.13
2019-04-05T01:25:39.605Z,3.10
2019-04-05T01:28:09.196Z,3.00
2019-04-05T01:30:38.427Z,3.43
2019-04-05T01:33:07.691Z,3.30
2019-04-05T01:35:36.922Z,3.27
2019-04-05T01:38:06.130Z,3.70
2019-04-05T01:40:38.510Z,3.20
2019-04-05T01:43:08.052Z,3.30
2019-04-05T01:45:37.210Z,3.90
2019-04-05T01:48:06.520Z,3.63
2019-04-05T01:50:35.810Z,3.20
2019-04-05T01:53:05.122Z,3.60
2019-04-05T01:55:35.022Z,3.60
2019-04-05T01:58:04.448Z,3.80
2019-04-05T02:00:33.637Z,3.40
2019-04-05T02:03:02.990Z,3.30
2019-04-05T02:05:32.243Z,3.50
2019-04-05T02:08:01.639Z,3.37
2019-04-05T02:10:31.356Z,3.50
2019-04-05T02:13:01.055Z,3.53
2019-04-05T02:15:32.062Z,3.20
2019-04-05T02:18:01.746Z,3.03
2019-04-05T02:20:30.979Z,3.27
2019-04-05T02:23:00.249Z,2.97
2019-04-05T02:25:29.992Z,3.10
2019-04-05T02:28:00.381Z,3.50
2019-04-05T02:30:30.121Z,3.60
2019-04-05T02:32:59.559Z,3.40
2019-04-05T02:35:29.095Z,3.23
2019-04-05T02:37:58.571Z,3.60
2019-04-05T02:40:28.871Z,3.50
2019-04-05T02:43:01.123Z,3.30
2019-04-05T02:45:34.189Z,3.80
2019-04-05T02:48:06.802Z,3.47
2019-04-05T02:50:39.040Z,3.30
2019-04-05T02:53:11.469Z,3.27
2019-04-05T02:55:43.710Z,2.80
2019-04-05T02:58:14.176Z,3.23
2019-04-05T03:00:45.189Z,3.10
2019-04-05T03:03:16.727Z,3.40
2019-04-05T03:05:47.078Z,3.90
2019-04-05T03:08:18.739Z,3.07
2019-04-05T03:11:03.096Z,2.97
2019-04-05T03:13:36.399Z,2.93
2019-04-05T03:16:12.612Z,3.80
2019-04-05T03:18:45.172Z,3.70
2019-04-05T03:21:17.791Z,3.70
2019-04-05T03:23:48.024Z,3.10
2019-04-05T03:26:20.640Z,3.60
2019-04-05T03:28:52.831Z,3.50
2019-04-05T03:31:25.257Z,3.10
2019-04-05T03:33:53.211Z,3.80
2019-04-05T03:36:26.638Z,3.57
2019-04-05T03:38:56.023Z,3.23
2019-04-05T03:41:25.718Z,3.60
2019-04-05T03:43:55.261Z,3.60
2019-04-05T03:46:24.929Z,3.70
2019-04-05T03:48:54.203Z,3.33
2019-04-05T03:51:24.756Z,3.73
2019-04-05T03:53:55.028Z,3.90
2019-04-05T03:56:24.890Z,4.10
2019-04-05T03:58:54.188Z,3.83
2019-04-05T04:01:23.831Z,3.53
2019-04-05T04:03:53.712Z,4.07
2019-04-05T04:06:23.430Z,4.13
2019-04-05T04:08:52.899Z,4.20
2019-04-05T04:11:22.257Z,3.90
2019-04-05T04:13:51.534Z,3.63
2019-04-05T04:16:21.965Z,4.00
2019-04-05T04:18:51.219Z,4.40
2019-04-05T04:21:33.953Z,4.27
2019-04-05T04:24:03.721Z,4.00
2019-04-05T04:26:33.690Z,3.70
2019-04-05T04:29:03.306Z,3.40
2019-04-05T04:31:32.913Z,4.20
2019-04-05T04:34:02.763Z,4.17
2019-04-05T04:36:32.741Z,3.70
2019-04-05T04:39:02.068Z,3.63
2019-04-05T04:41:32.215Z,3.60
2019-04-05T04:44:03.086Z,3.57
2019-04-05T04:46:33.994Z,3.73
2019-04-05T04:49:04.054Z,4.20
2019-04-05T04:51:34.335Z,3.60
2019-04-05T04:54:04.560Z,3.70
2019-04-05T04:56:35.362Z,3.30
2019-04-05T04:59:05.285Z,3.07
2019-04-05T05:01:34.561Z,3.37
2019-04-05T05:04:04.211Z,3.20
2019-04-05T05:06:33.827Z,2.93
2019-04-05T05:09:06.599Z,3.00
2019-04-05T05:11:36.144Z,3.37
2019-04-05T05:14:06.022Z,3.13
2019-04-05T05:16:35.562Z,3.23
2019-04-05T05:19:05.301Z,3.37
2019-04-05T05:21:35.187Z,3.13
2019-04-05T05:24:05.034Z,2.93
2019-04-05T05:26:34.739Z,2.87
2019-04-05T05:29:04.325Z,3.30
2019-04-05T05:31:33.626Z,3.27
2019-04-05T05:34:03.487Z,3.37
2019-04-05T05:36:33.126Z,3.10
2019-04-05T05:39:02.878Z,2.80
2019-04-05T05:41:32.108Z,3.10
2019-04-05T05:44:01.712Z,3.20
2019-04-05T05:46:30.946Z,2.70
2019-04-05T05:49:00.173Z,3.07
2019-04-05T05:51:29.845Z,3.03
2019-04-05T05:53:59.233Z,3.57
2019-04-05T05:56:28.646Z,3.43
2019-04-05T05:58:59.631Z,3.07
2019-04-05T06:01:29.490Z,3.23
2019-04-05T06:03:58.757Z,2.97
2019-04-05T06:06:28.027Z,3.47
2019-04-05T06:08:57.442Z,3.30
2019-04-05T06:11:26.721Z,2.93
2019-04-05T06:13:56.063Z,3.10
2019-04-05T06:16:26.350Z,2.90
2019-04-05T06:18:55.871Z,2.70
2019-04-05T06:21:25.135Z,2.40
2019-04-05T06:23:54.482Z,2.63
2019-04-05T06:26:23.737Z,2.83
2019-04-05T06:28:53.065Z,2.97
2019-04-05T06:31:22.537Z,2.70
2019-04-05T06:33:51.838Z,3.20
2019-04-05T06:36:21.108Z,2.97
2019-04-05T06:38:50.374Z,3.10
2019-04-05T06:41:19.604Z,2.90
2019-04-05T06:43:48.884Z,3.37
2019-04-05T06:46:18.134Z,3.13
2019-04-05T06:48:47.400Z,3.60
2019-04-05T06:51:16.682Z,3.43
2019-04-05T06:53:46.102Z,3.47
2019-04-05T06:56:15.294Z,3.40
2019-04-05T06:58:46.307Z,3.57
2019-04-05T07:01:15.849Z,3.37
2019-04-05T07:03:45.096Z,4.40
2019-04-05T07:06:14.410Z,3.40
2019-04-05T07:08:53.104Z,3.67
2019-04-05T07:11:14.654Z,3.60
2019-04-05T07:13:44.217Z,3.40
2019-04-05T07:16:13.531Z,3.60
2019-04-05T07:18:42.721Z,4.20
2019-04-05T07:21:12.065Z,3.40
2019-04-05T07:23:41.389Z,3.80
2019-04-05T07:26:10.659Z,3.33
2019-04-05T07:28:40.028Z,3.77
2019-04-05T07:31:09.267Z,3.00
2019-04-05T07:33:38.524Z,3.23
2019-04-05T07:36:07.788Z,2.77
2019-04-05T07:38:37.057Z,3.00
2019-04-05T07:41:06.383Z,3.20
2019-04-05T07:43:35.654Z,2.90
2019-04-05T07:46:04.891Z,3.00
2019-04-05T07:48:44.196Z,3.10
2019-04-05T07:51:05.327Z,3.03
2019-04-05T07:53:34.637Z,2.73
2019-04-05T07:56:03.967Z,2.63
2019-04-05T07:58:33.310Z,3.03
2019-04-05T08:01:05.427Z,2.90
2019-04-05T08:03:34.806Z,2.63
2019-04-05T08:06:04.260Z,3.20
2019-04-05T08:09:02.249Z,3.10
2019-04-05T08:11:32.278Z,4.10
2019-04-05T08:14:02.641Z,4.23
2019-04-05T08:16:31.906Z,4.47
2019-04-05T08:19:01.151Z,4.10
2019-04-05T08:21:30.646Z,3.67
2019-04-05T08:23:59.924Z,3.70
2019-04-05T08:26:29.298Z,3.97
2019-04-05T08:28:58.594Z,3.17
2019-04-05T08:31:27.799Z,3.60
2019-04-05T08:33:57.091Z,4.23
2019-04-05T08:36:26.350Z,4.10
2019-04-05T08:38:55.621Z,3.70
2019-04-05T08:41:24.853Z,3.90
2019-04-05T08:43:54.224Z,3.77
2019-04-05T08:46:23.475Z,4.30
2019-04-05T08:48:52.642Z,3.97
2019-04-05T08:51:21.915Z,3.93
2019-04-05T08:53:51.329Z,4.10
2019-04-05T08:56:22.024Z,2.43
2019-04-05T08:58:51.373Z,3.90
2019-04-05T09:01:20.654Z,3.80
2019-04-05T09:03:49.960Z,4.50
2019-04-05T09:06:19.334Z,4.87
2019-04-05T09:08:48.576Z,4.27
2019-04-05T09:11:17.815Z,4.87
2019-04-05T09:13:47.100Z,4.60
2019-04-05T09:16:16.333Z,4.30
2019-04-05T09:18:45.600Z,4.40
2019-04-05T09:21:17.562Z,4.80
2019-04-05T09:23:45.835Z,4.40
2019-04-05T09:26:15.094Z,4.03
2019-04-05T09:28:44.372Z,4.27
2019-04-05T09:31:13.675Z,4.57
2019-04-05T09:33:42.915Z,4.03
2019-04-05T09:36:12.146Z,4.45
2019-04-05T09:38:41.467Z,4.40
2019-04-05T09:41:10.733Z,3.73
2019-04-05T09:43:39.989Z,4.00
2019-04-05T09:46:09.306Z,4.30
2019-04-05T09:48:38.574Z,4.60
2019-04-05T09:51:07.968Z,4.67
2019-04-05T09:53:37.250Z,4.30
2019-04-05T09:56:06.543Z,4.70
2019-04-05T09:58:35.790Z,4.73
2019-04-05T10:01:05.098Z,5.63
2019-04-05T10:03:34.359Z,4.50
2019-04-05T10:06:03.937Z,4.90
2019-04-05T10:08:33.559Z,4.90
2019-04-05T10:11:02.859Z,4.50
2019-04-05T10:13:32.115Z,5.10
2019-04-05T10:16:01.385Z,5.10
2019-04-05T10:18:30.800Z,5.27
2019-04-05T10:21:00.118Z,5.37
2019-04-05T10:23:29.404Z,4.97
2019-04-05T10:25:58.655Z,5.37
2019-04-05T10:28:28.590Z,5.40
2019-04-05T10:30:57.886Z,6.47
2019-04-05T10:33:27.253Z,6.57
2019-04-05T10:36:03.191Z,5.90
2019-04-05T10:38:32.439Z,6.17
2019-04-05T10:41:23.059Z,5.73
2019-04-05T10:43:52.188Z,6.03
2019-04-05T10:46:21.416Z,4.93
2019-04-05T10:48:50.677Z,4.93
2019-04-05T10:51:20.246Z,5.10
2019-04-05T10:53:49.623Z,5.07
2019-04-05T10:56:19.155Z,5.00
2019-04-05T10:58:48.432Z,5.10
2019-04-05T11:01:17.665Z,4.83
2019-04-05T11:03:46.976Z,5.37
2019-04-05T11:06:16.310Z,4.73
2019-04-05T11:08:45.563Z,4.90
2019-04-05T11:11:14.839Z,5.23
2019-04-05T11:13:44.108Z,4.80
2019-04-05T11:16:13.399Z,4.90
2019-04-05T11:18:44.984Z,5.47
2019-04-05T11:21:13.691Z,5.77
2019-04-05T11:23:42.951Z,5.80
2019-04-05T11:26:12.209Z,6.47
2019-04-05T11:28:41.490Z,6.27
2019-04-05T11:31:10.779Z,6.77
2019-04-05T11:33:40.094Z,7.47
2019-04-05T11:36:11.630Z,7.50
2019-04-05T11:38:42.392Z,7.27
2019-04-05T11:41:12.264Z,7.50
2019-04-05T11:43:42.551Z,6.47
2019-04-05T11:46:12.321Z,7.03
2019-04-05T11:48:41.554Z,5.57
2019-04-05T11:51:10.833Z,6.33
2019-04-05T11:53:40.176Z,5.83
2019-04-05T11:56:14.922Z,5.47
2019-04-05T11:58:42.281Z,5.00
2019-04-05T12:01:23.832Z,5.57
2019-04-05T12:03:53.158Z,5.90
2019-04-05T12:06:22.409Z,5.97
2019-04-05T12:08:51.654Z,5.00
2019-04-05T12:11:21.049Z,5.40
2019-04-05T12:13:50.311Z,5.40
2019-04-05T12:16:19.611Z,4.93
2019-04-05T12:18:48.858Z,5.80
2019-04-05T12:21:20.981Z,5.47
2019-04-05T12:23:51.003Z,5.10
2019-04-05T12:26:20.259Z,5.73
2019-04-05T12:28:49.529Z,5.03
2019-04-05T12:31:19.513Z,4.90
2019-04-05T12:33:51.433Z,5.60
2019-04-05T12:36:22.042Z,5.63
2019-04-05T12:38:53.972Z,5.37
2019-04-05T12:41:21.975Z,5.93
2019-04-05T12:43:51.300Z,5.27
2019-04-05T12:46:20.589Z,5.10
2019-04-05T12:48:49.991Z,5.00
2019-04-05T12:51:19.267Z,5.23
2019-04-05T12:53:48.562Z,5.60
2019-04-05T12:56:17.830Z,3.73
2019-04-05T12:58:47.003Z,5.20
2019-04-05T13:01:16.314Z,5.60
2019-04-05T13:03:45.626Z,5.30
2019-04-05T13:06:14.945Z,5.23
2019-04-05T13:08:44.714Z,5.30
2019-04-05T13:11:14.155Z,6.23
2019-04-05T13:13:43.607Z,5.97
2019-04-05T13:16:13.084Z,4.47
2019-04-05T13:18:42.389Z,5.73
2019-04-05T13:21:15.103Z,5.10
2019-04-05T13:23:42.945Z,5.20
2019-04-05T13:26:12.568Z,4.90
2019-04-05T13:28:42.151Z,4.73
2019-04-05T13:31:11.515Z,4.20
2019-04-05T13:33:40.686Z,4.33
2019-04-05T13:36:09.969Z,3.80
2019-04-05T13:38:39.871Z,3.67
2019-04-05T13:41:09.354Z,3.83
2019-04-05T13:43:38.840Z,3.30
2019-04-05T13:46:21.037Z,3.77
2019-04-05T13:48:40.680Z,3.73
2019-04-05T13:51:12.936Z,3.87
2019-04-05T13:53:43.870Z,3.80
2019-04-05T13:56:13.212Z,4.03
2019-04-05T13:58:46.176Z,3.73
2019-04-05T14:01:13.494Z,2.83
2019-04-05T14:03:42.999Z,4.37
2019-04-05T14:06:12.488Z,3.80
2019-04-05T14:08:42.068Z,3.77
2019-04-05T14:11:11.701Z,3.20
2019-04-05T14:13:42.961Z,3.23
2019-04-05T14:16:12.522Z,3.10
2019-04-05T14:18:45.734Z,3.00
2019-04-05T14:21:13.246Z,3.17
2019-04-05T14:23:42.579Z,3.20
2019-04-05T14:26:11.905Z,2.87
2019-04-05T14:28:41.138Z,2.40
2019-04-05T14:31:10.634Z,2.60
2019-04-05T14:33:39.933Z,2.37
2019-04-05T14:36:09.321Z,1.97
2019-04-05T14:38:38.624Z,1.80
2019-04-05T14:41:09.464Z,2.60
2019-04-05T14:43:38.740Z,2.50
2019-04-05T14:46:08.228Z,2.60
2019-04-05T14:48:37.454Z,3.10
2019-04-05T14:51:06.756Z,2.70
2019-04-05T14:53:36.058Z,2.90
2019-04-05T14:56:05.356Z,2.87
2019-04-05T14:58:34.610Z,2.50
2019-04-05T15:01:03.973Z,2.47
2019-04-05T15:03:33.322Z,2.43
2019-04-05T15:06:02.646Z,2.53
2019-04-05T15:08:32.046Z,2.73
2019-04-05T15:11:01.355Z,2.00
2019-04-05T15:13:30.730Z,2.13
2019-04-05T15:15:59.988Z,1.90
2019-04-05T15:18:29.287Z,1.77
2019-04-05T15:20:58.566Z,2.00
2019-04-05T15:23:27.874Z,1.90
2019-04-05T15:25:57.524Z,1.90
2019-04-05T15:28:26.863Z,1.57
2019-04-05T15:30:56.617Z,2.57
2019-04-05T15:33:27.748Z,1.67
2019-04-05T15:36:02.220Z,1.80
2019-04-05T15:38:31.304Z,1.93
2019-04-05T15:41:00.143Z,1.60
2019-04-05T15:43:29.533Z,1.60
2019-04-05T15:45:58.962Z,1.40
2019-04-05T15:48:28.300Z,1.62
2019-04-05T15:50:59.318Z,1.40
2019-04-05T15:53:31.873Z,1.60
2019-04-05T15:56:03.868Z,1.40
2019-04-05T15:58:31.497Z,1.67
2019-04-05T16:01:04.290Z,1.67
2019-04-05T16:03:36.761Z,1.30
2019-04-05T16:06:05.379Z,1.50
2019-04-05T16:08:34.612Z,1.20
2019-04-05T16:11:04.315Z,1.40
2019-04-05T16:13:33.580Z,1.40
2019-04-05T16:16:02.863Z,1.33
2019-04-05T16:18:32.182Z,1.23
2019-04-05T16:21:01.446Z,1.10
2019-04-05T16:23:30.717Z,1.20
2019-04-05T16:26:00.472Z,1.23
2019-04-05T16:28:29.850Z,1.30
2019-04-05T16:30:59.180Z,1.13
2019-04-05T16:33:28.499Z,1.00
2019-04-05T16:35:57.757Z,1.00
2019-04-05T16:38:27.364Z,1.00
2019-04-05T16:40:56.625Z,1.20
2019-04-05T16:43:25.898Z,1.20
2019-04-05T16:45:55.162Z,1.10
2019-04-05T16:48:24.482Z,1.23
2019-04-05T16:50:53.716Z,1.30
2019-04-05T16:53:22.974Z,1.10
2019-04-05T16:55:52.379Z,1.00
2019-04-05T16:58:21.799Z,0.70
2019-04-05T17:00:51.186Z,1.07
2019-04-05T17:03:20.495Z,1.00
2019-04-05T17:05:49.731Z,0.90
2019-04-05T17:08:18.983Z,1.07
2019-04-05T17:10:48.422Z,0.77
2019-04-05T17:13:17.665Z,0.87
2019-04-05T17:15:46.852Z,1.03
2019-04-05T17:18:16.115Z,1.33
2019-04-05T17:20:45.399Z,0.90
2019-04-05T17:23:14.736Z,0.80
2019-04-05T17:25:44.047Z,0.90
2019-04-05T17:28:13.326Z,0.90
2019-04-05T17:30:42.601Z,0.93
2019-04-05T17:33:11.854Z,0.77
2019-04-05T17:35:41.095Z,0.90
2019-04-05T17:38:10.383Z,0.97
2019-04-05T17:40:39.609Z,0.90
2019-04-05T17:43:09.151Z,0.70
2019-04-05T17:45:38.428Z,1.00
2019-04-05T17:48:07.732Z,0.70
2019-04-05T17:50:36.977Z,0.83
2019-04-05T17:53:12.728Z,0.70
2019-04-05T17:55:37.214Z,0.90
2019-04-05T17:58:06.974Z,0.70
2019-04-05T18:00:36.567Z,0.70
2019-04-05T18:03:05.807Z,1.57
2019-04-05T18:05:35.446Z,0.90
2019-04-05T18:08:05.003Z,1.40
2019-04-05T18:10:34.327Z,1.47
2019-04-05T18:13:03.615Z,1.70
2019-04-05T18:15:32.859Z,1.83
2019-04-05T18:18:02.102Z,1.77
2019-04-05T18:20:31.361Z,2.10
2019-04-05T18:23:00.606Z,2.73
2019-04-05T18:25:29.878Z,2.90
2019-04-05T18:27:59.071Z,2.70
2019-04-05T18:30:28.391Z,2.50
2019-04-05T18:32:57.670Z,2.80
2019-04-05T18:35:27.007Z,2.97
2019-04-05T18:37:56.370Z,2.77
2019-04-05T18:40:25.530Z,2.77
2019-04-05T18:42:54.972Z,2.43
2019-04-05T18:45:24.235Z,3.00
2019-04-05T18:47:53.677Z,2.67
2019-04-05T18:50:22.920Z,2.87
2019-04-05T18:52:52.082Z,3.00
2019-04-05T18:55:21.342Z,2.60
2019-04-05T18:57:50.603Z,3.07
2019-04-05T19:00:19.970Z,2.90
2019-04-05T19:02:49.232Z,2.80
2019-04-05T19:05:18.543Z,2.80
2019-04-05T19:07:47.789Z,2.90
2019-04-05T19:10:17.041Z,3.20
2019-04-05T19:12:46.404Z,3.00
2019-04-05T19:15:15.984Z,3.10
2019-04-05T19:17:45.299Z,3.43
2019-04-05T19:20:14.588Z,3.70
2019-04-05T19:22:43.883Z,3.30
2019-04-05T19:25:13.195Z,3.03
2019-04-05T19:27:42.635Z,3.47
2019-04-05T19:50:40.269Z,2.90
2019-04-05T19:53:09.572Z,2.83
2019-04-05T19:55:38.842Z,3.80
2019-04-05T19:58:08.079Z,3.33
2019-04-05T20:00:37.350Z,3.30
2019-04-05T20:03:06.639Z,3.27
2019-04-05T20:05:35.802Z,4.27
2019-04-05T20:08:05.139Z,3.30
2019-04-05T20:10:34.514Z,3.30
2019-04-05T20:13:03.761Z,3.57
2019-04-05T20:15:33.013Z,3.13
2019-04-05T20:18:02.308Z,4.00
2019-04-05T20:20:31.642Z,3.93
2019-04-05T20:23:00.910Z,4.93
2019-04-05T20:25:30.166Z,3.43
2019-04-05T20:27:59.415Z,3.33
2019-04-05T20:30:28.657Z,4.00
2019-04-05T20:32:57.936Z,3.50
2019-04-05T20:35:27.183Z,4.07
2019-04-05T20:37:56.455Z,4.00
2019-04-05T20:40:25.814Z,4.30
2019-04-05T20:42:55.064Z,4.20
2019-04-05T20:45:24.707Z,3.50
2019-04-05T20:47:54.063Z,3.73
2019-04-05T20:50:23.371Z,4.13
2019-04-05T20:52:52.559Z,3.57
2019-04-05T20:55:21.829Z,3.90
2019-04-05T20:57:51.214Z,4.27
2019-04-05T21:00:20.467Z,4.50
2019-04-05T21:02:49.728Z,4.60
2019-04-05T21:05:25.304Z,4.57
2019-04-05T21:07:50.338Z,4.30
2019-04-05T21:10:19.601Z,4.00
2019-04-05T21:12:48.912Z,4.57
2019-04-05T21:15:18.250Z,4.33
2019-04-05T21:17:47.493Z,4.63
2019-04-05T21:20:17.115Z,4.70
2019-04-05T21:22:46.356Z,4.30
2019-04-05T21:25:15.533Z,4.40
2019-04-05T21:27:45.008Z,4.60
2019-04-05T21:30:15.806Z,4.90
2019-04-05T21:32:45.120Z,5.00
2019-04-05T21:35:14.483Z,5.17
2019-04-05T21:37:43.827Z,4.37
2019-04-05T21:40:13.191Z,4.97
2019-04-05T21:42:42.527Z,4.93
2019-04-05T21:45:11.767Z,4.70
2019-04-05T21:47:41.109Z,4.93
2019-04-05T21:50:11.315Z,5.07
2019-04-05T21:52:40.666Z,5.40
2019-04-05T21:55:10.195Z,5.30
2019-04-05T21:57:39.496Z,5.37
2019-04-05T22:00:14.431Z,4.93
2019-04-05T22:02:43.952Z,4.87
2019-04-05T22:05:13.230Z,5.97
2019-04-05T22:07:42.513Z,5.57
2019-04-05T22:10:11.970Z,5.20
2019-04-05T22:12:45.159Z,5.80
2019-04-05T22:15:14.614Z,5.43
2019-04-05T22:17:44.080Z,5.67
2019-04-05T22:20:13.545Z,5.17
2019-04-05T22:22:42.930Z,5.90
2019-04-05T22:25:14.237Z,5.03
2019-04-05T22:27:43.637Z,5.27
2019-04-05T22:30:13.098Z,5.13
2019-04-05T22:32:42.460Z,5.67
2019-04-05T22:35:11.782Z,4.90
2019-04-05T22:37:41.799Z,5.30
2019-04-05T22:40:11.143Z,5.37
2019-04-05T22:42:40.499Z,5.27
2019-04-05T22:45:10.289Z,5.53
2019-04-05T22:47:39.669Z,5.53
2019-04-05T22:50:09.794Z,5.43
2019-04-05T22:52:39.435Z,6.10
2019-04-05T22:55:11.455Z,5.73
2019-04-05T22:57:40.225Z,5.13
2019-04-05T23:00:11.391Z,5.40
2019-04-05T23:02:40.665Z,5.77
2019-04-05T23:05:10.082Z,5.47
2019-04-05T23:07:39.619Z,5.93
2019-04-05T23:10:09.621Z,5.93
2019-04-05T23:12:39.350Z,6.30
2019-04-05T23:15:08.954Z,6.33
2019-04-05T23:17:38.493Z,6.10
2019-04-05T23:20:08.558Z,6.30
2019-04-05T23:22:37.859Z,5.80
2019-04-05T23:25:07.850Z,6.20
2019-04-05T23:27:37.164Z,6.33
2019-04-05T23:30:08.217Z,6.03
2019-04-05T23:32:37.603Z,6.30
2019-04-05T23:35:07.321Z,5.77
2019-04-05T23:37:36.822Z,6.40
2019-04-05T23:40:07.127Z,5.63
2019-04-05T23:42:36.579Z,6.23
2019-04-05T23:45:06.573Z,6.23
2019-04-05T23:47:35.931Z,6.30
2019-04-05T23:50:06.183Z,6.47
2019-04-05T23:52:35.771Z,6.40
2019-04-05T23:55:05.946Z,6.63
2019-04-05T23:57:35.348Z,6.97
